createdAt,value
2018-09-12T00:00:33.003Z,8.10
2018-09-12T00:05:36.719Z,7.70
2018-09-12T00:10:40.319Z,7.40
2018-09-12T00:15:44.275Z,7.47
2018-09-12T00:20:47.954Z,6.87
2018-09-12T00:25:51.669Z,7.13
2018-09-12T00:30:55.322Z,7.20
2018-09-12T00:35:59.094Z,6.70
2018-09-12T00:41:02.772Z,6.80
2018-09-12T00:46:06.487Z,6.80
2018-09-12T00:51:10.244Z,7.30
2018-09-12T00:56:13.844Z,7.37
2018-09-12T01:01:17.416Z,6.90
2018-09-12T01:06:21.164Z,7.30
2018-09-12T01:11:25.746Z,7.17
2018-09-12T01:16:29.479Z,6.60
2018-09-12T01:21:34.232Z,7.90
2018-09-12T01:26:38.129Z,7.73
2018-09-12T01:31:41.703Z,7.60
2018-09-12T01:36:45.326Z,7.43
2018-09-12T01:41:48.928Z,7.90
2018-09-12T01:46:57.271Z,7.53
2018-09-12T01:52:00.929Z,7.23
2018-09-12T01:57:05.192Z,7.87
2018-09-12T02:02:09.083Z,8.10
2018-09-12T02:07:12.729Z,7.43
2018-09-12T02:12:16.675Z,7.63
2018-09-12T02:17:20.332Z,7.23
2018-09-12T02:22:23.963Z,8.13
2018-09-12T02:27:28.275Z,7.57
2018-09-12T02:32:32.920Z,7.53
2018-09-12T02:37:38.168Z,7.60
2018-09-12T02:42:41.999Z,7.30
2018-09-12T02:47:46.323Z,7.97
2018-09-12T02:52:49.930Z,8.07
2018-09-12T02:57:53.823Z,8.20
2018-09-12T03:02:57.453Z,9.13
2018-09-12T03:08:01.462Z,8.27
2018-09-12T03:13:05.049Z,7.50
2018-09-12T03:18:08.670Z,8.50
2018-09-12T03:23:13.220Z,8.03
2018-09-12T03:34:07.307Z,8.70
2018-09-12T03:39:12.171Z,8.40
2018-09-12T03:44:15.817Z,8.50
2018-09-12T03:49:19.423Z,8.80
2018-09-12T03:54:23.478Z,8.50
2018-09-12T03:59:28.254Z,8.70
2018-09-12T04:04:57.335Z,8.13
2018-09-12T04:15:43.878Z,8.60
2018-09-12T04:20:47.914Z,9.20
2018-09-12T04:25:51.597Z,9.57
2018-09-12T04:30:55.197Z,8.30
2018-09-12T04:35:59.970Z,9.53
2018-09-12T04:41:03.567Z,9.33
2018-09-12T04:46:07.473Z,7.90
2018-09-12T04:51:11.748Z,8.33
2018-09-12T04:56:18.960Z,10.50
2018-09-12T05:01:23.529Z,9.53
2018-09-12T05:06:29.245Z,9.80
2018-09-12T05:11:33.052Z,10.70
2018-09-12T05:16:36.799Z,10.27
2018-09-12T05:21:40.456Z,9.47
2018-09-12T05:26:44.100Z,9.17
2018-09-12T05:31:47.943Z,8.27
2018-09-12T05:36:51.528Z,8.43
2018-09-12T05:41:55.665Z,9.27
2018-09-12T05:46:59.289Z,8.47
2018-09-12T05:52:02.887Z,9.20
2018-09-12T05:57:06.505Z,9.77
2018-09-12T06:02:11.143Z,8.67
2018-09-12T06:07:14.924Z,8.67
2018-09-12T06:12:18.833Z,8.80
2018-09-12T06:17:24.969Z,9.10
2018-09-12T06:22:31.608Z,9.30
2018-09-12T06:27:35.208Z,9.17
2018-09-12T06:32:38.817Z,8.67
2018-09-12T06:37:42.509Z,9.57
2018-09-12T06:42:46.817Z,8.50
2018-09-12T06:47:50.407Z,9.30
2018-09-12T06:52:53.990Z,9.43
2018-09-12T06:57:58.180Z,9.80
2018-09-12T07:03:02.036Z,9.03
2018-09-12T07:08:06.119Z,9.33
2018-09-12T07:13:10.608Z,9.30
2018-09-12T07:18:14.212Z,10.30
2018-09-12T07:23:17.803Z,9.83
2018-09-12T07:28:22.048Z,9.07
2018-09-12T07:33:26.327Z,10.37
2018-09-12T07:38:29.953Z,9.50
2018-09-12T07:43:33.565Z,10.70
2018-09-12T07:48:38.461Z,9.60
2018-09-12T07:53:42.088Z,11.30
2018-09-12T07:58:45.747Z,9.60
2018-09-12T08:03:49.563Z,10.07
2018-09-12T08:08:53.569Z,10.70
2018-09-12T08:13:57.197Z,9.50
2018-09-12T08:19:00.847Z,9.10
2018-09-12T08:24:06.920Z,7.90
2018-09-12T08:29:10.654Z,7.50
2018-09-12T08:34:14.609Z,7.27
2018-09-12T08:39:18.284Z,6.73
2018-09-12T08:44:21.968Z,6.47
2018-09-12T08:49:26.106Z,7.33
2018-09-12T08:54:29.729Z,7.00
2018-09-12T08:59:34.294Z,8.10
2018-09-12T09:04:37.952Z,8.37
2018-09-12T09:09:41.752Z,8.90
2018-09-12T09:14:45.336Z,8.60
2018-09-12T09:19:49.276Z,9.63
2018-09-12T09:24:52.892Z,10.43
2018-09-12T09:29:56.536Z,10.23
2018-09-12T09:35:01.160Z,10.97
2018-09-12T09:40:07.000Z,10.90
2018-09-12T09:45:10.969Z,10.80
2018-09-12T09:50:15.723Z,9.33
2018-09-12T09:55:19.400Z,11.17
2018-09-12T10:00:28.207Z,11.10
2018-09-12T10:05:37.329Z,9.73
2018-09-12T10:10:40.934Z,10.90
2018-09-12T10:15:44.610Z,9.90
2018-09-12T10:20:48.180Z,9.73
2018-09-12T10:25:52.329Z,9.73
2018-09-12T10:30:55.981Z,9.07
2018-09-12T10:35:59.694Z,10.30
2018-09-12T10:41:03.447Z,9.87
2018-09-12T10:46:06.693Z,10.37
2018-09-12T10:51:20.561Z,10.20
2018-09-12T10:56:25.244Z,8.67
2018-09-12T11:01:30.825Z,9.43
2018-09-12T11:06:35.040Z,9.07
2018-09-12T11:11:46.538Z,8.83
2018-09-12T11:16:50.200Z,9.20
2018-09-12T11:21:53.833Z,9.50
2018-09-12T11:26:57.502Z,9.83
2018-09-12T11:32:01.193Z,9.47
2018-09-12T11:37:04.987Z,8.83
2018-09-12T11:42:10.201Z,9.90
2018-09-12T11:47:14.736Z,9.27
2018-09-12T11:52:18.380Z,8.90
2018-09-12T11:57:21.650Z,7.70
2018-09-12T12:02:25.530Z,7.30
2018-09-12T12:07:29.188Z,9.30
2018-09-12T12:12:32.537Z,7.63
2018-09-12T12:17:37.264Z,7.90
2018-09-12T12:22:40.915Z,7.17
2018-09-12T12:27:44.704Z,8.37
2018-09-12T12:32:48.360Z,7.50
2018-09-12T12:37:53.299Z,8.10
2018-09-12T12:42:59.569Z,7.80
2018-09-12T12:48:03.274Z,6.43
2018-09-12T12:53:07.516Z,7.20
2018-09-12T12:58:11.277Z,6.73
2018-09-12T13:03:15.087Z,5.83
2018-09-12T13:08:18.577Z,6.20
2018-09-12T13:13:22.497Z,6.00
2018-09-12T13:18:26.119Z,7.03
2018-09-12T13:23:31.786Z,5.83
2018-09-12T13:28:36.081Z,6.07
2018-09-12T13:33:40.353Z,6.70
2018-09-12T13:38:44.498Z,6.23
2018-09-12T13:43:48.651Z,6.20
2018-09-12T13:48:53.877Z,5.33
2018-09-12T13:53:57.508Z,5.80
2018-09-12T13:59:01.332Z,6.07
2018-09-12T14:04:05.315Z,6.13
2018-09-12T14:09:10.912Z,5.70
2018-09-12T14:14:15.415Z,5.47
2018-09-12T14:19:19.069Z,4.93
2018-09-12T14:24:23.376Z,4.77
2018-09-12T14:29:27.761Z,4.67
2018-09-12T14:34:31.721Z,5.60
2018-09-12T14:39:35.676Z,5.73
2018-09-12T14:44:43.337Z,5.13
2018-09-12T14:49:52.114Z,4.90
2018-09-12T14:55:33.424Z,5.00
2018-09-12T15:00:47.019Z,5.57
2018-09-12T15:06:23.043Z,4.80
2018-09-12T15:11:53.896Z,5.67
2018-09-12T15:17:34.233Z,5.17
2018-09-12T15:22:56.493Z,5.00
2018-09-12T15:28:15.344Z,4.60
2018-09-12T15:33:19.616Z,4.77
2018-09-12T15:38:23.043Z,4.80
2018-09-12T15:43:26.335Z,4.93
2018-09-12T15:48:29.688Z,4.67
2018-09-12T15:53:33.425Z,5.60
2018-09-12T15:58:37.519Z,5.50
2018-09-12T16:03:41.672Z,5.27
2018-09-12T16:08:45.676Z,5.90
2018-09-12T16:13:49.893Z,4.97
2018-09-12T16:18:53.928Z,5.40
2018-09-12T16:23:57.698Z,5.23
2018-09-12T16:29:02.984Z,5.10
2018-09-12T16:34:06.912Z,5.03
2018-09-12T16:39:20.648Z,5.50
2018-09-12T16:44:24.647Z,4.97
2018-09-12T16:49:28.481Z,4.80
2018-09-12T16:54:32.967Z,5.20
2018-09-12T16:59:38.278Z,5.00
2018-09-12T17:04:43.133Z,4.90
2018-09-12T17:09:47.293Z,5.60
2018-09-12T17:14:51.184Z,5.40
2018-09-12T17:19:54.843Z,5.60
2018-09-12T17:24:58.679Z,5.10
2018-09-12T17:30:02.412Z,5.00
2018-09-12T17:35:06.184Z,5.87
2018-09-12T17:40:10.504Z,4.90
2018-09-12T17:45:14.808Z,6.37
2018-09-12T17:50:18.478Z,6.57
2018-09-12T17:55:22.416Z,6.77
2018-09-12T18:00:29.819Z,5.63
2018-09-12T18:05:34.174Z,7.20
2018-09-12T18:10:38.162Z,6.03
2018-09-12T18:15:42.205Z,6.00
2018-09-12T18:20:46.476Z,6.50
2018-09-12T18:25:50.511Z,5.73
2018-09-12T18:30:54.570Z,7.27
2018-09-12T18:35:59.631Z,7.77
2018-09-12T18:41:03.397Z,7.50
2018-09-12T18:46:07.075Z,7.20
2018-09-12T18:51:11.231Z,6.90
2018-09-12T18:56:14.678Z,11.93
2018-09-12T19:01:18.860Z,6.50
2018-09-12T19:06:22.401Z,6.47
2018-09-12T19:11:26.071Z,6.80
2018-09-12T19:16:29.931Z,6.30
2018-09-12T19:21:33.603Z,6.10
2018-09-12T19:26:42.904Z,6.20
2018-09-12T19:31:46.205Z,5.90
2018-09-12T19:36:50.367Z,8.77
2018-09-12T19:41:53.656Z,6.57
2018-09-12T19:46:57.688Z,7.97
2018-09-12T19:52:01.410Z,8.10
2018-09-12T19:57:04.658Z,6.33
2018-09-12T20:02:09.158Z,6.70
2018-09-12T20:07:12.446Z,6.70
2018-09-12T20:12:16.351Z,6.37
2018-09-12T20:17:20.742Z,7.00
2018-09-12T20:22:24.429Z,6.43
2018-09-12T20:27:28.108Z,5.77
2018-09-12T20:32:32.124Z,6.27
2018-09-12T20:37:35.829Z,6.87
2018-09-12T20:42:40.040Z,6.10
2018-09-12T20:47:44.169Z,6.63
2018-09-12T20:52:47.508Z,6.23
2018-09-12T20:57:51.317Z,6.90
2018-09-12T21:02:54.633Z,6.23
2018-09-12T21:07:58.490Z,7.10
2018-09-12T21:13:03.143Z,7.20
2018-09-12T21:18:07.553Z,6.90
2018-09-12T21:23:11.771Z,8.70
2018-09-12T21:28:15.655Z,7.43
2018-09-12T21:33:25.376Z,7.17
2018-09-12T21:38:29.547Z,7.67
2018-09-12T21:43:34.180Z,6.40
2018-09-12T21:48:40.497Z,7.07
2018-09-12T21:53:44.156Z,6.73
2018-09-12T21:58:48.182Z,7.43
2018-09-12T22:03:52.531Z,7.77
2018-09-12T22:09:00.672Z,7.27
2018-09-12T22:14:05.119Z,7.40
2018-09-12T22:19:09.092Z,8.07
2018-09-12T22:24:12.934Z,7.70
2018-09-12T22:29:16.713Z,6.90
2018-09-12T22:34:20.414Z,7.10
2018-09-12T22:39:24.063Z,7.10
2018-09-12T22:44:29.588Z,7.23
2018-09-12T22:49:33.274Z,7.37
2018-09-12T22:54:37.043Z,6.93
2018-09-12T22:59:40.704Z,8.27
2018-09-12T23:04:44.733Z,7.60
2018-09-12T23:09:48.484Z,7.40
2018-09-12T23:14:52.411Z,7.27
2018-09-12T23:19:56.054Z,7.30
2018-09-12T23:24:59.651Z,7.00
2018-09-12T23:30:03.291Z,6.33
2018-09-12T23:35:07.048Z,6.77
2018-09-12T23:40:11.311Z,6.90
2018-09-12T23:45:15.475Z,7.10
2018-09-12T23:50:19.080Z,6.97
2018-09-12T23:55:22.720Z,8.30
